createdAt,value
2019-04-26T00:02:45.817Z,8.30
2019-04-26T00:05:35.461Z,8.30
2019-04-26T00:08:22.666Z,8.30
2019-04-26T00:11:37.899Z,8.30
2019-04-26T00:14:47.127Z,8.10
2019-04-26T00:17:38.549Z,8.10
2019-04-26T00:20:26.639Z,7.90
2019-04-26T00:23:14.717Z,8.10
2019-04-26T00:26:02.660Z,8.40
2019-04-26T00:28:50.508Z,8.30
2019-04-26T00:31:38.553Z,8.10
2019-04-26T00:34:26.225Z,7.90
2019-04-26T00:37:14.139Z,7.70
2019-04-26T00:40:01.697Z,7.80
2019-04-26T00:42:50.436Z,7.50
2019-04-26T00:45:40.375Z,7.30
2019-04-26T00:48:29.500Z,7.30
2019-04-26T00:51:17.845Z,7.40
2019-04-26T00:54:05.845Z,7.60
2019-04-26T00:56:53.979Z,7.40
2019-04-26T00:59:42.308Z,7.30
2019-04-26T01:02:35.805Z,7.30
2019-04-26T01:05:23.397Z,7.20
2019-04-26T01:08:11.446Z,7.30
2019-04-26T01:10:59.212Z,7.10
2019-04-26T01:13:47.106Z,7.10
2019-04-26T01:16:35.020Z,6.90
2019-04-26T01:19:24.600Z,6.70
2019-04-26T01:22:18.361Z,6.80
2019-04-26T01:25:06.491Z,6.90
2019-04-26T01:27:54.467Z,6.90
2019-04-26T01:30:43.087Z,7.00
2019-04-26T01:33:33.999Z,7.00
2019-04-26T01:36:24.323Z,6.90
2019-04-26T01:39:19.688Z,6.90
2019-04-26T01:42:14.711Z,7.00
2019-04-26T01:45:20.205Z,6.80
2019-04-26T01:48:31.326Z,6.70
2019-04-26T01:51:35.430Z,6.90
2019-04-26T01:54:26.074Z,6.80
2019-04-26T01:57:14.738Z,6.70
2019-04-26T02:00:16.168Z,6.60
2019-04-26T02:03:11.018Z,6.50
2019-04-26T02:05:58.523Z,6.40
2019-04-26T02:08:46.035Z,6.30
2019-04-26T02:11:33.885Z,6.30
2019-04-26T02:14:22.828Z,6.20
2019-04-26T02:17:12.224Z,6.20
2019-04-26T02:19:59.966Z,6.30
2019-04-26T02:23:00.456Z,6.20
2019-04-26T02:25:48.422Z,6.30
2019-04-26T02:28:36.383Z,6.50
2019-04-26T02:31:26.662Z,6.60
2019-04-26T02:34:14.561Z,6.40
2019-04-26T02:37:05.236Z,6.50
2019-04-26T02:39:54.546Z,6.40
2019-04-26T02:42:43.694Z,6.50
2019-04-26T02:46:00.522Z,6.40
2019-04-26T02:49:33.059Z,6.60
2019-04-26T02:52:37.159Z,6.60
2019-04-26T02:56:08.314Z,6.50
2019-04-26T02:59:29.571Z,6.50
2019-04-26T03:02:25.641Z,6.50
2019-04-26T03:05:13.478Z,6.60
2019-04-26T03:08:04.993Z,6.60
2019-04-26T03:11:02.369Z,6.70
2019-04-26T03:14:01.414Z,6.80
2019-04-26T03:17:26.473Z,6.90
2019-04-26T03:20:18.064Z,7.10
2019-04-26T03:23:57.135Z,7.20
2019-04-26T03:26:54.506Z,7.20
2019-04-26T03:30:18.449Z,7.00
2019-04-26T03:33:34.160Z,7.30
2019-04-26T03:37:20.204Z,7.30
2019-04-26T03:40:46.103Z,7.30
2019-04-26T03:44:16.036Z,7.10
2019-04-26T03:47:26.498Z,7.10
2019-04-26T03:50:53.969Z,7.20
2019-04-26T03:54:09.533Z,7.20
2019-04-26T03:57:30.743Z,7.30
2019-04-26T04:00:41.288Z,7.30
2019-04-26T04:03:52.601Z,7.40
2019-04-26T04:07:03.029Z,7.60
2019-04-26T04:09:57.033Z,7.70
2019-04-26T04:13:20.819Z,7.70
2019-04-26T04:17:08.179Z,7.60
2019-04-26T04:20:39.011Z,7.60
2019-04-26T04:33:15.368Z,7.70
2019-04-26T04:59:15.642Z,8.10
2019-04-26T05:09:41.178Z,8.30
2019-04-26T05:25:42.326Z,8.60
2019-04-26T05:42:23.401Z,8.90
2019-04-26T05:46:14.139Z,9.00
2019-04-26T06:19:59.459Z,9.30
2019-04-26T06:24:01.987Z,9.40
2019-04-26T06:28:25.814Z,9.30
2019-04-26T06:37:10.706Z,9.50
2019-04-26T06:53:24.539Z,9.60
2019-04-26T07:05:29.812Z,9.50
2019-04-26T07:09:57.518Z,9.50
2019-04-26T07:13:43.213Z,9.40
2019-04-26T07:17:53.293Z,9.40
2019-04-26T08:18:20.425Z,8.60
2019-04-26T08:30:50.665Z,8.40
2019-04-26T08:31:07.657Z,8.20
2019-04-26T09:07:05.675Z,8.70
2019-04-26T09:10:16.516Z,8.60
2019-04-26T09:13:14.278Z,8.60
2019-04-26T09:16:14.865Z,8.60
2019-04-26T09:19:13.051Z,8.70
2019-04-26T09:22:18.380Z,8.80
2019-04-26T09:25:34.429Z,8.90
2019-04-26T09:28:29.521Z,9.00
2019-04-26T09:31:50.362Z,9.10
2019-04-26T09:34:41.237Z,8.90
2019-04-26T09:37:27.406Z,8.90
2019-04-26T09:40:21.593Z,8.80
2019-04-26T09:43:16.927Z,8.90
2019-04-26T09:46:29.736Z,8.80
2019-04-26T09:49:37.377Z,8.80
2019-04-26T09:52:27.925Z,8.90
2019-04-26T09:55:15.467Z,8.70
2019-04-26T09:58:03.829Z,8.80
2019-04-26T10:00:52.146Z,8.80
2019-04-26T10:03:39.894Z,8.70
2019-04-26T10:06:29.775Z,8.40
2019-04-26T10:09:21.198Z,8.30
2019-04-26T10:12:21.576Z,8.30
2019-04-26T10:15:39.029Z,8.30
2019-04-26T10:18:26.704Z,8.30
2019-04-26T10:21:18.764Z,8.40
2019-04-26T10:24:08.697Z,8.60
2019-04-26T10:27:20.200Z,8.80
2019-04-26T10:30:16.249Z,8.80
2019-04-26T10:33:06.051Z,8.70
2019-04-26T10:35:56.657Z,8.80
2019-04-26T10:38:44.745Z,8.70
2019-04-26T10:41:42.254Z,9.00
2019-04-26T10:44:35.640Z,9.00
2019-04-26T10:47:24.869Z,8.90
2019-04-26T10:50:35.345Z,8.80
2019-04-26T10:53:42.374Z,8.70
2019-04-26T10:56:40.199Z,8.80
2019-04-26T10:59:46.143Z,8.70
2019-04-26T11:03:00.136Z,8.70
2019-04-26T11:05:57.962Z,8.70
2019-04-26T11:12:17.560Z,8.90
2019-04-26T11:15:24.337Z,9.10
2019-04-26T11:18:20.749Z,8.90
2019-04-26T11:21:06.472Z,8.90
2019-04-26T11:24:08.388Z,8.90
2019-04-26T11:27:16.953Z,9.00
2019-04-26T11:30:12.246Z,8.70
2019-04-26T11:33:13.448Z,8.70
2019-04-26T11:36:03.309Z,8.80
2019-04-26T11:38:55.453Z,8.60
2019-04-26T11:41:50.329Z,8.50
2019-04-26T11:44:51.061Z,8.60
2019-04-26T11:47:54.303Z,8.60
2019-04-26T11:50:31.665Z,8.70
2019-04-26T11:53:33.660Z,8.80
2019-04-26T11:56:24.873Z,8.90
2019-04-26T11:59:15.337Z,9.00
2019-04-26T12:02:03.493Z,8.90
2019-04-26T12:05:45.215Z,9.10
2019-04-26T12:08:40.293Z,8.90
2019-04-26T12:11:35.291Z,9.00
2019-04-26T12:14:33.588Z,9.30
2019-04-26T12:17:27.211Z,9.30
2019-04-26T12:20:26.959Z,9.50
2019-04-26T12:23:46.586Z,9.70
2019-04-26T12:26:26.571Z,9.90
2019-04-26T12:29:32.040Z,10.60
2019-04-26T12:32:22.720Z,10.70
2019-04-26T12:35:16.396Z,10.50
2019-04-26T12:38:06.515Z,10.70
2019-04-26T12:40:54.605Z,10.70
2019-04-26T12:43:45.533Z,10.30
2019-04-26T12:46:46.880Z,10.40
2019-04-26T12:49:39.119Z,10.40
2019-04-26T12:52:37.521Z,10.30
2019-04-26T12:55:35.666Z,10.20
2019-04-26T12:58:32.545Z,10.10
2019-04-26T13:01:34.482Z,10.00
2019-04-26T13:04:35.892Z,10.10
2019-04-26T13:07:25.648Z,10.00
2019-04-26T13:10:36.926Z,9.80
2019-04-26T13:13:35.717Z,9.90
2019-04-26T13:17:06.448Z,9.70
2019-04-26T13:20:01.857Z,9.70
2019-04-26T13:23:16.302Z,9.70
2019-04-26T13:26:10.091Z,9.70
2019-04-26T13:29:03.762Z,9.50
2019-04-26T13:31:56.284Z,9.60
2019-04-26T13:34:48.137Z,9.70
2019-04-26T13:38:12.627Z,9.50
2019-04-26T13:41:04.819Z,9.40
2019-04-26T13:44:05.748Z,9.40
2019-04-26T13:47:26.229Z,9.50
2019-04-26T13:50:41.181Z,9.40
2019-04-26T13:53:31.329Z,9.60
2019-04-26T13:56:39.789Z,9.60
2019-04-26T13:59:47.591Z,9.60
2019-04-26T14:02:53.757Z,9.50
2019-04-26T14:06:06.377Z,9.40
2019-04-26T14:10:04.728Z,9.30
2019-04-26T14:21:00.241Z,9.40
2019-04-26T14:24:57.010Z,9.50
2019-04-26T14:27:51.503Z,9.60
2019-04-26T14:30:43.295Z,9.70
2019-04-26T14:33:33.799Z,9.70
2019-04-26T14:36:26.780Z,9.60
2019-04-26T14:39:49.734Z,9.70
2019-04-26T14:42:33.610Z,9.80
2019-04-26T14:45:36.350Z,10.00
2019-04-26T14:48:36.318Z,10.10
2019-04-26T14:51:20.327Z,10.10
2019-04-26T14:54:20.597Z,10.40
2019-04-26T14:57:19.932Z,10.30
2019-04-26T15:07:06.904Z,10.30
2019-04-26T15:10:10.854Z,9.90
2019-04-26T15:13:14.995Z,10.00
2019-04-26T15:16:03.918Z,10.00
2019-04-26T15:18:59.602Z,9.90
2019-04-26T15:21:50.016Z,9.80
2019-04-26T15:24:42.187Z,9.80
2019-04-26T15:27:36.192Z,9.80
2019-04-26T15:30:58.021Z,9.60
2019-04-26T15:49:26.074Z,9.80
2019-04-26T16:10:59.109Z,11.20
2019-04-26T16:21:22.367Z,11.10
2019-04-26T16:24:10.135Z,10.70
2019-04-26T16:26:58.056Z,10.30
2019-04-26T16:30:02.536Z,10.10
2019-04-26T16:32:59.235Z,10.10
2019-04-26T16:35:46.415Z,9.90
2019-04-26T16:38:37.842Z,10.10
2019-04-26T16:41:27.358Z,10.00
2019-04-26T16:44:18.531Z,10.10
2019-04-26T16:47:05.840Z,10.20
2019-04-26T16:50:03.277Z,10.30
2019-04-26T16:52:50.784Z,10.10
2019-04-26T16:55:49.148Z,10.30
2019-04-26T16:58:30.879Z,10.30
2019-04-26T17:01:16.662Z,10.10
2019-04-26T17:04:10.750Z,10.10
2019-04-26T17:06:53.720Z,10.10
2019-04-26T17:09:56.971Z,9.90
2019-04-26T17:12:30.816Z,10.00
2019-04-26T17:15:20.937Z,10.00
2019-04-26T17:18:07.730Z,10.10
2019-04-26T17:20:55.446Z,10.10
2019-04-26T17:24:05.992Z,9.80
2019-04-26T17:26:54.376Z,9.60
2019-04-26T17:29:42.443Z,9.70
2019-04-26T17:32:30.147Z,9.70
2019-04-26T17:35:17.482Z,9.70
2019-04-26T17:38:05.266Z,9.60
2019-04-26T17:40:55.210Z,9.70
2019-04-26T17:43:47.563Z,9.70
2019-04-26T17:46:32.662Z,9.50
2019-04-26T17:49:26.551Z,9.40
2019-04-26T17:52:11.206Z,9.30
2019-04-26T17:55:00.287Z,9.30
2019-04-26T17:57:52.468Z,9.40
2019-04-26T18:00:45.757Z,9.30
2019-04-26T18:03:28.841Z,9.30
2019-04-26T18:06:28.823Z,9.40
2019-04-26T18:09:07.515Z,9.40
2019-04-26T18:12:04.707Z,9.30
2019-04-26T18:14:55.410Z,9.30
2019-04-26T18:18:31.673Z,9.40
2019-04-26T18:21:53.512Z,9.30
2019-04-26T18:24:46.320Z,9.30
2019-04-26T18:27:39.167Z,9.30
2019-04-26T18:30:47.582Z,9.30
2019-04-26T18:33:37.527Z,9.30
2019-04-26T18:36:36.957Z,9.40
2019-04-26T18:39:26.463Z,9.50
2019-04-26T18:42:19.086Z,9.40
2019-04-26T18:45:13.762Z,9.50
2019-04-26T18:48:03.005Z,9.50
2019-04-26T18:50:56.785Z,9.60
2019-04-26T18:54:16.194Z,9.70
2019-04-26T18:57:24.057Z,9.70
2019-04-26T19:00:31.054Z,9.70
2019-04-26T19:03:24.685Z,9.70
2019-04-26T19:06:37.876Z,9.70
2019-04-26T19:09:28.351Z,9.70
2019-04-26T19:12:34.449Z,9.60
2019-04-26T19:16:01.031Z,9.50
2019-04-26T19:18:53.643Z,9.60
2019-04-26T19:21:54.577Z,9.60
2019-04-26T19:24:43.954Z,9.60
2019-04-26T19:27:49.593Z,9.40
2019-04-26T19:30:47.168Z,9.30
2019-04-26T19:33:36.134Z,9.40
2019-04-26T19:36:30.311Z,9.40
2019-04-26T19:39:42.609Z,9.20
2019-04-26T19:42:34.877Z,9.10
2019-04-26T19:45:51.944Z,9.10
2019-04-26T19:49:21.416Z,9.20
2019-04-26T19:52:53.651Z,9.10
2019-04-26T19:56:01.721Z,9.10
2019-04-26T19:58:57.361Z,8.90
2019-04-26T20:01:57.576Z,8.80
2019-04-26T21:27:29.970Z,8.30
2019-04-26T21:30:44.657Z,8.30
2019-04-26T21:33:43.553Z,8.30
2019-04-26T21:36:59.970Z,8.30
2019-04-26T21:40:33.523Z,8.30
2019-04-26T21:43:29.573Z,8.30
2019-04-26T21:46:20.818Z,8.30
2019-04-26T21:49:20.741Z,8.20
2019-04-26T21:55:38.205Z,8.10
2019-04-26T21:58:24.915Z,8.10
2019-04-26T22:01:20.054Z,8.10
2019-04-26T22:04:14.342Z,8.00
2019-04-26T22:07:11.927Z,8.00
2019-04-26T22:10:44.539Z,7.90
2019-04-26T22:17:15.184Z,7.80
2019-04-26T22:20:23.410Z,7.90
2019-04-26T22:27:25.230Z,8.00
2019-04-26T22:30:36.623Z,7.90
2019-04-26T22:33:40.548Z,7.80
2019-04-26T22:36:43.949Z,7.70
2019-04-26T22:39:39.745Z,7.80
2019-04-26T22:42:33.032Z,7.80
2019-04-26T22:45:23.564Z,7.70
2019-04-26T22:48:22.869Z,7.90
2019-04-26T22:51:05.163Z,7.80
2019-04-26T22:53:53.447Z,7.80
2019-04-26T22:56:41.196Z,7.70
2019-04-26T22:59:28.554Z,7.70
2019-04-26T23:02:18.397Z,7.70
2019-04-26T23:05:07.691Z,7.70
2019-04-26T23:07:59.352Z,7.60
2019-04-26T23:10:47.771Z,7.70
2019-04-26T23:13:44.761Z,7.70
2019-04-26T23:17:05.713Z,7.60
2019-04-26T23:20:00.586Z,7.50
2019-04-26T23:22:48.057Z,7.60
2019-04-26T23:25:35.168Z,7.50
2019-04-26T23:28:22.709Z,7.50
2019-04-26T23:31:10.444Z,7.50
2019-04-26T23:33:58.099Z,7.50
2019-04-26T23:36:49.028Z,7.50
2019-04-26T23:39:34.041Z,7.60
2019-04-26T23:42:23.300Z,7.60
2019-04-26T23:45:12.428Z,7.70
2019-04-26T23:47:59.911Z,7.70
2019-04-26T23:50:47.561Z,7.50
2019-04-26T23:53:35.915Z,7.60
2019-04-26T23:56:25.280Z,7.70
2019-04-26T23:59:14.933Z,7.60
